createdAt,value
2022-09-27T00:01:26.145Z,9.55
2022-09-27T00:03:55.563Z,8.77
2022-09-27T00:06:26.330Z,8.10
2022-09-27T00:08:53.813Z,8.37
2022-09-27T00:11:37.065Z,8.32
2022-09-27T00:14:08.474Z,8.77
2022-09-27T00:19:13.924Z,10.52
2022-09-27T00:21:43.534Z,9.05
2022-09-27T00:24:15.833Z,10.20
2022-09-27T00:26:43.385Z,11.10
2022-09-27T00:29:11.102Z,8.80
2022-09-27T00:31:38.755Z,9.35
2022-09-27T00:34:07.640Z,10.68
2022-09-27T00:36:38.373Z,10.88
2022-09-27T00:39:06.170Z,7.60
2022-09-27T00:41:39.189Z,9.43
2022-09-27T00:44:25.162Z,10.90
2022-09-27T00:47:27.214Z,9.45
2022-09-27T00:50:09.632Z,9.95
2022-09-27T00:52:42.222Z,10.10
2022-09-27T00:55:24.346Z,9.43
2022-09-27T00:57:52.472Z,9.85
2022-09-27T01:00:24.234Z,9.35
2022-09-27T01:02:56.510Z,10.52
2022-09-27T01:05:30.862Z,10.07
2022-09-27T01:08:00.878Z,8.70
2022-09-27T01:10:37.257Z,11.35
2022-09-27T01:13:21.050Z,11.77
2022-09-27T01:15:54.171Z,13.88
2022-09-27T01:18:43.612Z,11.15
2022-09-27T01:21:23.175Z,9.43
2022-09-27T01:24:26.902Z,11.05
2022-09-27T01:27:16.861Z,9.82
2022-09-27T01:30:10.965Z,10.48
2022-09-27T01:33:08.220Z,10.07
2022-09-27T01:36:00.339Z,11.52
2022-09-27T01:38:47.737Z,13.50
2022-09-27T01:41:16.805Z,9.88
2022-09-27T01:44:13.356Z,12.13
2022-09-27T01:46:58.980Z,11.18
2022-09-27T01:49:58.141Z,10.82
2022-09-27T01:52:52.740Z,9.88
2022-09-27T01:55:28.781Z,15.25
2022-09-27T01:58:48.103Z,10.00
2022-09-27T02:01:19.255Z,11.65
2022-09-27T02:03:52.190Z,14.73
2022-09-27T02:06:47.052Z,12.95
2022-09-27T02:09:23.141Z,12.60
2022-09-27T02:12:14.073Z,11.23
2022-09-27T02:14:54.976Z,11.85
2022-09-27T02:17:52.068Z,13.73
2022-09-27T02:20:29.825Z,10.68
2022-09-27T02:23:23.643Z,11.82
2022-09-27T02:26:12.302Z,11.77
2022-09-27T02:28:48.406Z,10.95
2022-09-27T02:31:23.903Z,14.75
2022-09-27T02:33:58.461Z,10.13
2022-09-27T02:36:27.846Z,10.50
2022-09-27T02:38:55.544Z,12.70
2022-09-27T02:41:24.671Z,10.77
2022-09-27T02:43:57.110Z,11.45
2022-09-27T02:46:32.475Z,11.75
2022-09-27T02:49:33.541Z,14.00
2022-09-27T02:52:44.754Z,11.77
2022-09-27T02:55:15.417Z,12.02
2022-09-27T02:58:18.135Z,12.18
2022-09-27T03:01:29.837Z,18.27
2022-09-27T03:04:29.198Z,12.13
2022-09-27T03:07:00.299Z,13.10
2022-09-27T03:09:42.373Z,15.13
2022-09-27T03:12:09.853Z,12.27
2022-09-27T03:14:37.181Z,13.27
2022-09-27T03:17:19.508Z,13.93
2022-09-27T03:20:05.791Z,13.27
2022-09-27T03:22:49.172Z,16.27
2022-09-27T03:25:17.044Z,16.60
2022-09-27T03:27:47.627Z,16.52
2022-09-27T03:30:16.252Z,19.95
2022-09-27T03:32:47.809Z,22.77
2022-09-27T03:35:33.637Z,27.40
2022-09-27T03:38:01.594Z,22.85
2022-09-27T03:40:28.768Z,23.08
2022-09-27T03:42:56.385Z,20.27
2022-09-27T03:45:23.604Z,16.60
2022-09-27T03:48:01.673Z,15.80
2022-09-27T03:50:36.103Z,15.13
2022-09-27T03:53:05.189Z,13.77
2022-09-27T03:55:33.413Z,16.20
2022-09-27T03:58:01.735Z,13.98
2022-09-27T04:00:29.600Z,13.63
2022-09-27T04:02:56.857Z,13.35
2022-09-27T04:05:25.928Z,11.80
2022-09-27T04:07:57.842Z,11.32
2022-09-27T04:10:25.288Z,11.80
2022-09-27T04:12:52.731Z,14.32
2022-09-27T04:15:23.776Z,11.98
2022-09-27T04:17:52.273Z,12.20
2022-09-27T04:20:46.678Z,11.70
2022-09-27T04:23:14.839Z,10.80
2022-09-27T04:25:49.965Z,11.65
2022-09-27T04:28:43.309Z,13.20
2022-09-27T04:31:12.386Z,15.55
2022-09-27T04:34:14.867Z,13.07
2022-09-27T04:36:42.518Z,18.45
2022-09-27T04:39:16.299Z,15.57
2022-09-27T04:41:46.082Z,18.65
2022-09-27T04:44:13.741Z,13.88
2022-09-27T04:46:51.641Z,13.30
2022-09-27T04:49:19.407Z,13.90
2022-09-27T04:51:47.411Z,13.50
2022-09-27T04:54:14.862Z,14.13
2022-09-27T04:56:51.515Z,12.25
2022-09-27T04:59:19.939Z,12.02
2022-09-27T05:01:47.717Z,18.20
2022-09-27T05:04:32.042Z,15.45
2022-09-27T05:07:01.016Z,14.65
2022-09-27T05:09:37.057Z,14.13
2022-09-27T05:12:07.576Z,53.30
2022-09-27T05:14:35.065Z,27.23
2022-09-27T05:17:10.132Z,44.83
2022-09-27T05:20:06.675Z,71.07
2022-09-27T05:22:41.341Z,30.67
2022-09-27T05:25:09.072Z,19.25
2022-09-27T05:27:36.508Z,11.93
2022-09-27T05:30:05.074Z,11.25
2022-09-27T05:32:51.569Z,17.40
2022-09-27T05:35:38.049Z,10.43
2022-09-27T05:38:06.502Z,10.27
2022-09-27T05:40:41.439Z,11.15
2022-09-27T05:43:11.675Z,9.38
2022-09-27T05:45:39.135Z,13.73
2022-09-27T05:48:07.515Z,15.93
2022-09-27T05:50:43.142Z,11.85
2022-09-27T05:53:11.472Z,12.85
2022-09-27T05:55:38.730Z,10.27
2022-09-27T05:58:10.029Z,9.95
2022-09-27T06:00:45.794Z,12.07
2022-09-27T06:03:47.379Z,13.88
2022-09-27T06:06:39.349Z,13.20
2022-09-27T06:09:14.500Z,11.75
2022-09-27T06:11:45.486Z,13.98
2022-09-27T06:14:15.702Z,15.15
2022-09-27T06:17:11.912Z,13.15
2022-09-27T06:19:42.949Z,11.13
2022-09-27T06:22:10.249Z,12.43
2022-09-27T06:24:53.835Z,18.08
2022-09-27T06:27:26.414Z,15.65
2022-09-27T06:30:20.585Z,11.00
2022-09-27T06:33:02.926Z,16.00
2022-09-27T06:35:38.903Z,15.75
2022-09-27T06:38:12.053Z,13.27
2022-09-27T06:40:46.816Z,9.90
2022-09-27T06:43:22.555Z,11.82
2022-09-27T06:46:06.192Z,12.13
2022-09-27T06:48:46.127Z,14.15
2022-09-27T06:51:18.176Z,25.05
2022-09-27T06:53:45.752Z,15.45
2022-09-27T06:56:13.801Z,19.42
2022-09-27T06:59:06.545Z,17.83
2022-09-27T07:01:42.901Z,26.35
2022-09-27T07:04:19.506Z,10.20
2022-09-27T07:06:58.214Z,8.93
2022-09-27T07:09:29.329Z,9.48
2022-09-27T07:11:56.719Z,12.82
2022-09-27T07:14:26.584Z,9.70
2022-09-27T07:16:54.944Z,19.33
2022-09-27T07:19:22.261Z,24.45
2022-09-27T07:22:12.724Z,16.63
2022-09-27T07:24:41.946Z,9.32
2022-09-27T07:27:09.765Z,8.68
2022-09-27T07:29:37.323Z,7.18
2022-09-27T07:32:05.276Z,6.60
2022-09-27T07:34:34.319Z,8.82
2022-09-27T07:37:05.587Z,7.30
2022-09-27T07:39:37.022Z,8.57
2022-09-27T07:42:06.472Z,6.60
2022-09-27T07:44:36.260Z,7.28
2022-09-27T07:47:32.175Z,8.90
2022-09-27T07:50:12.591Z,13.98
2022-09-27T07:52:51.285Z,7.68
2022-09-27T07:55:36.258Z,6.65
2022-09-27T07:58:11.672Z,5.68
2022-09-27T08:00:41.049Z,7.50
2022-09-27T08:05:39.384Z,5.57
2022-09-27T08:08:07.160Z,7.55
2022-09-27T08:10:35.590Z,5.28
2022-09-27T08:13:05.337Z,6.18
2022-09-27T08:15:35.905Z,6.03
2022-09-27T08:18:03.496Z,33.28
2022-09-27T08:21:00.704Z,12.13
2022-09-27T08:24:06.783Z,8.68
2022-09-27T08:26:54.447Z,4.63
2022-09-27T08:29:32.531Z,7.47
2022-09-27T08:32:00.981Z,4.35
2022-09-27T08:34:29.448Z,18.27
2022-09-27T08:36:56.754Z,5.97
2022-09-27T08:39:25.100Z,6.65
2022-09-27T08:42:07.593Z,5.18
2022-09-27T08:44:38.314Z,7.03
2022-09-27T08:47:15.198Z,6.20
2022-09-27T08:50:07.254Z,5.90
2022-09-27T08:52:42.694Z,7.30
2022-09-27T08:55:20.742Z,5.50
2022-09-27T08:57:56.430Z,4.57
2022-09-27T09:00:27.023Z,8.20
2022-09-27T09:02:58.106Z,10.65
2022-09-27T09:05:34.951Z,5.20
2022-09-27T09:08:43.591Z,10.82
2022-09-27T09:11:58.311Z,6.25
2022-09-27T09:14:34.369Z,4.80
2022-09-27T09:17:29.169Z,12.68
2022-09-27T09:23:25.977Z,3.67
2022-09-27T09:26:18.243Z,3.83
2022-09-27T09:29:12.686Z,5.00
2022-09-27T09:31:53.201Z,5.85
2022-09-27T09:34:28.259Z,4.63
2022-09-27T09:37:06.157Z,5.05
2022-09-27T09:39:46.606Z,6.40
2022-09-27T09:42:35.895Z,6.75
2022-09-27T09:45:18.075Z,7.30
2022-09-27T09:47:54.925Z,6.47
2022-09-27T09:50:29.112Z,9.70
2022-09-27T09:53:13.431Z,6.70
2022-09-27T09:55:46.559Z,6.75
2022-09-27T09:58:23.551Z,16.92
2022-09-27T10:01:00.685Z,13.07
2022-09-27T10:03:29.119Z,5.72
2022-09-27T10:05:56.423Z,7.40
2022-09-27T10:08:24.942Z,5.65
2022-09-27T10:11:25.826Z,5.38
2022-09-27T10:14:14.413Z,5.63
2022-09-27T10:16:48.798Z,4.22
2022-09-27T10:19:26.933Z,9.88
2022-09-27T10:21:55.104Z,3.85
2022-09-27T10:24:23.657Z,3.85
2022-09-27T10:27:05.915Z,8.65
2022-09-27T10:29:39.238Z,13.27
2022-09-27T10:32:31.115Z,4.82
2022-09-27T10:35:30.341Z,6.30
2022-09-27T10:38:23.565Z,3.63
2022-09-27T10:40:56.817Z,3.10
2022-09-27T10:46:22.259Z,5.63
2022-09-27T10:49:17.815Z,4.30
2022-09-27T10:51:49.921Z,4.90
2022-09-27T10:57:14.557Z,6.38
2022-09-27T10:59:50.405Z,3.83
2022-09-27T11:02:37.614Z,4.00
2022-09-27T11:05:15.403Z,3.80
2022-09-27T11:07:53.890Z,4.20
2022-09-27T11:10:37.635Z,9.80
2022-09-27T11:13:15.282Z,6.30
2022-09-27T11:16:06.297Z,7.22
2022-09-27T11:18:52.814Z,4.10
2022-09-27T11:21:20.456Z,3.70
2022-09-27T11:24:11.968Z,8.77
2022-09-27T11:27:18.290Z,5.55
2022-09-27T11:30:20.247Z,4.78
2022-09-27T11:33:55.112Z,3.53
2022-09-27T11:37:02.360Z,4.85
2022-09-27T11:39:54.291Z,2.88
2022-09-27T11:42:43.448Z,5.80
2022-09-27T11:45:50.274Z,5.32
2022-09-27T11:48:30.274Z,3.92
2022-09-27T11:51:03.956Z,4.93
2022-09-27T11:53:40.795Z,14.48
2022-09-27T11:56:29.951Z,2.70
2022-09-27T11:59:25.291Z,3.13
2022-09-27T12:01:54.338Z,6.32
2022-09-27T12:04:24.589Z,3.25
2022-09-27T12:07:03.937Z,5.45
2022-09-27T12:09:36.435Z,2.67
2022-09-27T12:12:13.286Z,5.35
2022-09-27T12:14:48.692Z,2.60
2022-09-27T12:17:21.922Z,4.25
2022-09-27T12:19:58.481Z,6.13
2022-09-27T12:23:06.052Z,4.70
2022-09-27T12:25:58.820Z,8.23
2022-09-27T12:28:51.213Z,5.47
2022-09-27T12:31:37.503Z,4.13
2022-09-27T12:34:22.629Z,8.68
2022-09-27T12:37:19.803Z,2.65
2022-09-27T12:39:55.907Z,3.15
2022-09-27T12:42:36.681Z,4.65
2022-09-27T12:45:15.084Z,3.55
2022-09-27T12:48:08.684Z,8.70
2022-09-27T12:50:58.206Z,3.65
2022-09-27T12:53:38.206Z,6.00
2022-09-27T12:56:31.197Z,5.55
2022-09-27T12:59:17.630Z,5.03
2022-09-27T13:02:24.018Z,3.13
2022-09-27T13:05:00.844Z,2.83
2022-09-27T13:07:47.970Z,3.40
2022-09-27T13:10:34.135Z,5.32
2022-09-27T13:13:13.061Z,2.05
2022-09-27T13:15:44.909Z,6.47
2022-09-27T13:18:38.197Z,6.13
2022-09-27T13:21:07.374Z,4.38
2022-09-27T13:23:40.592Z,3.78
2022-09-27T13:26:32.746Z,5.57
2022-09-27T13:29:04.846Z,1.88
2022-09-27T13:31:55.135Z,6.85
2022-09-27T13:35:18.612Z,6.72
2022-09-27T13:37:51.734Z,4.32
2022-09-27T13:40:32.355Z,2.40
2022-09-27T13:43:13.523Z,6.32
2022-09-27T13:46:21.074Z,6.10
2022-09-27T13:48:52.919Z,8.77
2022-09-27T13:51:31.840Z,4.13
2022-09-27T13:54:26.165Z,2.58
2022-09-27T13:56:57.952Z,13.75
2022-09-27T13:59:44.341Z,10.32
2022-09-27T14:03:25.664Z,3.22
2022-09-27T14:06:21.342Z,16.15
2022-09-27T14:08:59.241Z,2.40
2022-09-27T14:11:32.589Z,2.42
2022-09-27T14:14:03.337Z,2.08
2022-09-27T14:16:40.712Z,4.43
2022-09-27T14:19:16.453Z,6.07
2022-09-27T14:22:23.583Z,5.70
2022-09-27T14:25:05.049Z,2.85
2022-09-27T14:27:40.794Z,3.05
2022-09-27T14:30:30.486Z,7.53
2022-09-27T14:33:31.217Z,5.45
2022-09-27T14:36:37.496Z,2.65
2022-09-27T14:39:14.110Z,3.83
2022-09-27T14:41:41.758Z,2.78
2022-09-27T14:44:18.771Z,2.00
2022-09-27T14:46:47.059Z,3.92
2022-09-27T14:49:25.063Z,6.72
2022-09-27T14:51:57.165Z,3.13
2022-09-27T14:54:30.657Z,2.80
2022-09-27T14:57:00.282Z,5.03
2022-09-27T14:59:34.339Z,10.52
2022-09-27T15:02:10.429Z,6.18
2022-09-27T15:04:38.709Z,4.15
2022-09-27T15:07:06.031Z,4.07
2022-09-27T15:09:33.741Z,5.75
2022-09-27T15:12:05.679Z,4.70
2022-09-27T15:14:34.202Z,3.33
2022-09-27T15:17:06.196Z,2.85
2022-09-27T15:19:34.591Z,3.78
2022-09-27T15:22:31.875Z,7.45
2022-09-27T15:25:19.796Z,7.82
2022-09-27T15:27:50.092Z,3.70
2022-09-27T15:30:20.044Z,6.60
2022-09-27T15:32:53.247Z,12.38
2022-09-27T15:35:33.327Z,10.90
2022-09-27T15:38:26.565Z,14.05
2022-09-27T15:40:53.852Z,6.57
2022-09-27T15:43:32.202Z,11.38
2022-09-27T15:46:26.662Z,10.38
2022-09-27T15:49:21.866Z,13.70
2022-09-27T15:51:52.135Z,9.32
2022-09-27T15:54:21.278Z,11.52
2022-09-27T15:56:55.106Z,12.73
2022-09-27T15:59:28.092Z,11.35
2022-09-27T16:01:57.257Z,7.97
2022-09-27T16:04:26.382Z,13.95
2022-09-27T16:06:54.863Z,8.30
2022-09-27T16:09:22.247Z,15.93
2022-09-27T16:11:50.975Z,16.63
2022-09-27T16:14:19.811Z,10.95
2022-09-27T16:16:52.185Z,16.30
2022-09-27T16:19:19.444Z,10.07
2022-09-27T16:21:48.512Z,11.60
2022-09-27T16:24:17.436Z,11.98
2022-09-27T16:26:44.914Z,18.35
2022-09-27T16:29:14.791Z,16.30
2022-09-27T16:31:42.827Z,15.98
2022-09-27T16:34:11.259Z,16.20
2022-09-27T16:36:39.323Z,13.57
2022-09-27T16:39:08.278Z,12.90
2022-09-27T16:41:35.868Z,20.63
2022-09-27T16:44:11.047Z,13.40
2022-09-27T16:46:42.061Z,14.52
2022-09-27T16:49:31.899Z,11.63
2022-09-27T16:52:01.710Z,12.18
2022-09-27T16:54:29.808Z,13.57
2022-09-27T16:56:58.828Z,14.25
2022-09-27T16:59:26.334Z,13.30
2022-09-27T17:01:58.101Z,12.02
2022-09-27T17:04:27.535Z,3.35
2022-09-27T17:06:55.759Z,10.95
2022-09-27T17:09:23.145Z,117.43
2022-09-27T17:11:50.939Z,19.08
2022-09-27T17:14:18.755Z,7.28
2022-09-27T17:16:47.736Z,12.10
2022-09-27T17:19:16.903Z,14.70
2022-09-27T17:21:45.673Z,10.25
2022-09-27T17:24:17.149Z,13.27
2022-09-27T17:26:44.677Z,14.25
2022-09-27T17:29:12.652Z,13.80
2022-09-27T17:31:41.038Z,11.65
2022-09-27T17:34:12.452Z,14.45
2022-09-27T17:39:14.048Z,9.75
2022-09-27T17:41:41.312Z,6.82
2022-09-27T17:44:12.866Z,9.40
2022-09-27T17:46:40.964Z,15.50
2022-09-27T17:49:28.504Z,23.65
2022-09-27T17:51:55.771Z,16.13
2022-09-27T17:54:26.255Z,19.63
2022-09-27T17:56:53.793Z,8.10
2022-09-27T17:59:22.173Z,7.18
2022-09-27T18:01:54.136Z,8.88
2022-09-27T18:04:21.532Z,5.47
2022-09-27T18:06:48.672Z,11.35
2022-09-27T18:09:16.930Z,21.13
2022-09-27T18:11:45.416Z,26.73
2022-09-27T18:14:12.874Z,19.73
2022-09-27T18:16:43.289Z,24.85
2022-09-27T18:19:15.494Z,24.25
2022-09-27T18:21:43.803Z,30.58
2022-09-27T18:24:11.785Z,27.88
2022-09-27T18:26:43.106Z,16.98
2022-09-27T18:31:47.370Z,11.68
2022-09-27T18:34:17.915Z,12.60
2022-09-27T18:36:45.660Z,14.10
2022-09-27T18:39:19.326Z,9.52
2022-09-27T18:41:50.964Z,11.45
2022-09-27T18:46:46.287Z,19.90
2022-09-27T18:49:15.223Z,8.43
2022-09-27T18:51:46.361Z,7.60
2022-09-27T18:54:19.422Z,7.28
2022-09-27T18:56:48.545Z,9.02
2022-09-27T18:59:17.418Z,12.90
2022-09-27T19:01:46.125Z,8.70
2022-09-27T19:04:20.444Z,9.88
2022-09-27T19:06:50.574Z,11.27
2022-09-27T19:09:18.410Z,12.00
2022-09-27T19:11:46.091Z,13.23
2022-09-27T19:14:22.809Z,12.98
2022-09-27T19:16:50.088Z,12.90
2022-09-27T19:19:20.173Z,10.15
2022-09-27T19:22:01.654Z,12.23
2022-09-27T19:24:29.103Z,11.80
2022-09-27T19:27:23.987Z,9.85
2022-09-27T19:29:51.726Z,12.15
2022-09-27T19:32:19.570Z,14.35
2022-09-27T19:34:47.802Z,8.88
2022-09-27T19:37:14.805Z,116.72
2022-09-27T19:39:41.999Z,81.63
2022-09-27T19:42:09.064Z,48.38
2022-09-27T19:44:36.358Z,10.05
2022-09-27T19:47:03.468Z,6.25
2022-09-27T19:49:30.690Z,54.42
2022-09-27T19:51:57.736Z,140.57
2022-09-27T19:54:25.074Z,115.50
2022-09-27T19:56:52.252Z,68.78
2022-09-27T19:59:19.549Z,65.00
2022-09-27T20:01:46.825Z,21.05
2022-09-27T20:04:14.269Z,10.15
2022-09-27T20:06:41.668Z,3.63
2022-09-27T20:09:10.239Z,8.07
2022-09-27T20:11:37.587Z,2.30
2022-09-27T20:14:04.714Z,3.15
2022-09-27T20:16:32.309Z,6.38
2022-09-27T20:19:01.252Z,3.28
2022-09-27T20:21:32.943Z,3.75
2022-09-27T20:24:02.171Z,2.55
2022-09-27T20:26:31.386Z,4.15
2022-09-27T20:29:00.547Z,2.70
2022-09-27T20:31:30.395Z,4.90
2022-09-27T20:33:57.650Z,2.85
2022-09-27T20:36:33.844Z,3.25
2022-09-27T20:39:06.085Z,7.40
2022-09-27T20:41:38.421Z,4.50
2022-09-27T20:44:10.935Z,2.88
2022-09-27T20:46:39.482Z,8.23
2022-09-27T20:49:14.702Z,3.88
2022-09-27T20:51:44.001Z,2.63
2022-09-27T20:54:12.950Z,2.72
2022-09-27T20:56:42.939Z,3.50
2022-09-27T20:59:16.115Z,3.55
2022-09-27T21:01:45.639Z,4.32
2022-09-27T21:04:17.384Z,5.10
2022-09-27T21:06:44.948Z,4.90
2022-09-27T21:09:18.647Z,5.60
2022-09-27T21:11:48.693Z,4.43
2022-09-27T21:14:16.016Z,4.50
2022-09-27T21:16:43.209Z,4.68
2022-09-27T21:19:10.737Z,6.38
2022-09-27T21:21:37.849Z,4.82
2022-09-27T21:24:05.348Z,4.32
2022-09-27T21:26:34.144Z,7.40
2022-09-27T21:29:11.869Z,4.10
2022-09-27T21:31:39.138Z,2.85
2022-09-27T21:34:06.943Z,3.00
2022-09-27T21:36:39.041Z,4.35
2022-09-27T21:39:08.935Z,6.95
2022-09-27T21:41:38.924Z,3.10
2022-09-27T21:44:06.961Z,2.70
2022-09-27T21:46:34.442Z,3.85
2022-09-27T21:49:02.734Z,4.35
2022-09-27T21:51:37.474Z,4.80
2022-09-27T21:54:07.674Z,8.90
2022-09-27T21:56:37.668Z,3.17
2022-09-27T21:59:05.999Z,3.95
2022-09-27T22:01:35.096Z,3.30
2022-09-27T22:04:05.083Z,3.75
2022-09-27T22:06:37.474Z,7.60
2022-09-27T22:09:11.793Z,6.55
2022-09-27T22:11:43.975Z,7.38
2022-09-27T22:14:12.453Z,4.50
2022-09-27T22:16:39.869Z,3.90
2022-09-27T22:19:08.127Z,6.68
2022-09-27T22:21:37.154Z,3.55
2022-09-27T22:24:08.222Z,6.47
2022-09-27T22:29:05.058Z,4.13
2022-09-27T22:31:32.272Z,3.45
2022-09-27T22:34:02.533Z,2.47
2022-09-27T22:36:31.066Z,2.28
2022-09-27T22:38:58.438Z,2.92
2022-09-27T22:41:26.109Z,3.30
2022-09-27T22:43:53.698Z,3.40
2022-09-27T22:46:22.063Z,4.63
2022-09-27T22:48:49.846Z,3.30
2022-09-27T22:51:17.934Z,5.25
2022-09-27T22:53:46.310Z,3.97
2022-09-27T22:56:20.392Z,4.03
2022-09-27T22:58:48.697Z,8.13
2022-09-27T23:01:17.314Z,3.40
2022-09-27T23:03:45.802Z,2.53
2022-09-27T23:06:15.024Z,6.38
2022-09-27T23:08:42.644Z,5.68
2022-09-27T23:11:15.157Z,1.65
2022-09-27T23:13:43.986Z,1.95
2022-09-27T23:16:20.302Z,3.80
2022-09-27T23:18:47.923Z,1.70
2022-09-27T23:21:16.151Z,5.85
2022-09-27T23:23:45.173Z,1.98
2022-09-27T23:26:14.762Z,1.40
2022-09-27T23:28:42.397Z,2.50
2022-09-27T23:31:14.602Z,2.40
2022-09-27T23:33:45.638Z,5.32
2022-09-27T23:36:18.622Z,2.55
2022-09-27T23:38:48.658Z,2.03
2022-09-27T23:41:17.129Z,2.42
2022-09-27T23:43:45.219Z,1.85
2022-09-27T23:46:12.587Z,1.90
2022-09-27T23:48:40.295Z,4.85
2022-09-27T23:51:10.296Z,5.13
2022-09-27T23:53:38.656Z,3.53
2022-09-27T23:56:13.000Z,2.90
2022-09-27T23:58:42.947Z,2.80
